createdAt,value
2019-03-08T00:01:07.116Z,6.97
2019-03-08T00:03:35.129Z,8.03
2019-03-08T00:06:03.017Z,7.60
2019-03-08T00:08:30.906Z,7.30
2019-03-08T00:10:58.723Z,6.30
2019-03-08T00:13:26.383Z,7.23
2019-03-08T00:15:54.187Z,6.50
2019-03-08T00:18:22.023Z,6.27
2019-03-08T00:20:49.893Z,8.30
2019-03-08T00:23:17.830Z,8.20
2019-03-08T00:25:45.703Z,8.00
2019-03-08T00:28:13.567Z,8.00
2019-03-08T00:30:41.292Z,7.20
2019-03-08T00:33:11.039Z,7.53
2019-03-08T00:35:38.920Z,7.77
2019-03-08T00:38:06.857Z,9.17
2019-03-08T00:40:34.731Z,7.90
2019-03-08T00:43:02.807Z,8.57
2019-03-08T00:45:30.652Z,8.97
2019-03-08T00:47:58.480Z,8.47
2019-03-08T00:50:26.099Z,9.27
2019-03-08T00:52:54.044Z,9.50
2019-03-08T00:55:21.967Z,8.70
2019-03-08T00:57:49.812Z,9.87
2019-03-08T01:00:17.822Z,9.30
2019-03-08T01:02:45.740Z,9.20
2019-03-08T01:05:14.342Z,8.90
2019-03-08T01:07:42.257Z,9.67
2019-03-08T01:10:10.868Z,9.07
2019-03-08T01:12:38.835Z,9.07
2019-03-08T01:15:07.175Z,8.67
2019-03-08T01:17:35.086Z,9.00
2019-03-08T01:20:03.169Z,8.30
2019-03-08T01:22:31.053Z,9.17
2019-03-08T01:24:58.902Z,9.93
2019-03-08T01:27:26.743Z,9.37
2019-03-08T01:29:55.007Z,9.30
2019-03-08T01:32:22.921Z,9.63
2019-03-08T01:34:51.687Z,9.67
2019-03-08T01:37:20.515Z,10.40
2019-03-08T01:39:48.480Z,9.37
2019-03-08T01:42:16.224Z,10.53
2019-03-08T01:44:44.456Z,9.97
2019-03-08T01:47:12.343Z,9.07
2019-03-08T01:49:40.226Z,9.77
2019-03-08T01:52:08.221Z,10.63
2019-03-08T01:54:36.047Z,10.40
2019-03-08T01:57:03.939Z,10.03
2019-03-08T01:59:32.067Z,9.97
2019-03-08T02:01:59.955Z,9.60
2019-03-08T02:04:27.735Z,9.23
2019-03-08T02:06:55.851Z,9.67
2019-03-08T02:09:23.651Z,8.90
2019-03-08T02:11:51.519Z,9.33
2019-03-08T02:14:19.450Z,9.20
2019-03-08T02:16:47.375Z,9.00
2019-03-08T02:19:15.223Z,9.77
2019-03-08T02:21:43.148Z,9.50
2019-03-08T02:24:10.975Z,9.77
2019-03-08T02:26:38.824Z,9.47
2019-03-08T02:29:06.852Z,10.10
2019-03-08T02:31:34.858Z,9.40
2019-03-08T02:34:02.722Z,9.63
2019-03-08T02:36:30.662Z,9.43
2019-03-08T02:38:58.559Z,10.00
2019-03-08T02:41:26.231Z,9.80
2019-03-08T02:43:54.151Z,8.63
2019-03-08T02:46:22.165Z,10.13
2019-03-08T02:48:50.031Z,8.90
2019-03-08T02:51:18.958Z,10.13
2019-03-08T02:53:46.692Z,10.13
2019-03-08T02:56:14.478Z,9.50
2019-03-08T02:58:42.477Z,8.37
2019-03-08T03:01:10.474Z,8.70
2019-03-08T03:03:38.586Z,9.20
2019-03-08T03:06:06.494Z,8.80
2019-03-08T03:08:34.380Z,9.07
2019-03-08T03:11:02.355Z,9.37
2019-03-08T03:13:30.333Z,8.60
2019-03-08T03:15:58.281Z,9.30
2019-03-08T03:18:26.072Z,8.80
2019-03-08T03:20:54.181Z,8.50
2019-03-08T03:23:22.007Z,8.50
2019-03-08T03:25:49.852Z,8.43
2019-03-08T03:28:17.793Z,8.53
2019-03-08T03:30:45.711Z,8.73
2019-03-08T03:33:14.003Z,9.27
2019-03-08T03:35:41.906Z,7.87
2019-03-08T03:38:09.811Z,8.13
2019-03-08T03:40:37.782Z,8.60
2019-03-08T03:43:05.704Z,8.40
2019-03-08T03:45:33.607Z,8.17
2019-03-08T03:48:01.917Z,8.87
2019-03-08T03:50:29.836Z,8.17
2019-03-08T03:52:57.715Z,8.40
2019-03-08T03:55:25.477Z,8.77
2019-03-08T03:57:53.409Z,8.10
2019-03-08T04:00:21.738Z,8.80
2019-03-08T04:02:49.592Z,9.60
2019-03-08T04:05:17.415Z,8.80
2019-03-08T04:07:45.335Z,8.20
2019-03-08T04:10:13.296Z,8.33
2019-03-08T04:12:41.318Z,8.50
2019-03-08T04:15:09.935Z,7.90
2019-03-08T04:17:37.818Z,8.93
2019-03-08T04:20:06.659Z,8.50
2019-03-08T04:22:34.573Z,8.07
2019-03-08T04:25:02.543Z,8.50
2019-03-08T04:27:30.436Z,8.37
2019-03-08T04:29:58.273Z,8.73
2019-03-08T04:32:26.146Z,8.37
2019-03-08T04:34:54.407Z,8.53
2019-03-08T04:37:22.282Z,9.13
2019-03-08T04:39:49.992Z,8.30
2019-03-08T04:42:17.972Z,9.20
2019-03-08T04:44:46.074Z,8.70
2019-03-08T04:47:13.949Z,8.83
2019-03-08T04:49:41.880Z,8.60
2019-03-08T04:52:09.737Z,9.27
2019-03-08T04:54:37.648Z,8.13
2019-03-08T04:57:05.570Z,8.23
2019-03-08T04:59:33.491Z,9.40
2019-03-08T05:02:01.401Z,8.10
2019-03-08T05:04:29.316Z,8.33
2019-03-08T05:06:57.492Z,8.97
2019-03-08T05:09:25.377Z,9.23
2019-03-08T05:11:53.289Z,8.43
2019-03-08T05:14:21.202Z,8.00
2019-03-08T05:16:49.078Z,8.23
2019-03-08T05:19:16.984Z,8.23
2019-03-08T05:21:44.883Z,8.27
2019-03-08T05:24:12.872Z,8.50
2019-03-08T05:26:40.860Z,9.83
2019-03-08T05:29:08.692Z,11.90
2019-03-08T05:31:36.574Z,12.27
2019-03-08T05:34:04.380Z,10.47
2019-03-08T05:36:32.284Z,10.67
2019-03-08T05:39:01.861Z,10.47
2019-03-08T05:41:29.724Z,9.63
2019-03-08T05:43:57.634Z,11.73
2019-03-08T05:46:25.482Z,13.60
2019-03-08T05:48:53.418Z,12.53
2019-03-08T05:51:21.420Z,12.40
2019-03-08T05:53:49.610Z,12.70
2019-03-08T05:56:17.634Z,11.10
2019-03-08T05:58:45.532Z,10.40
2019-03-08T06:01:13.524Z,10.73
2019-03-08T06:03:41.328Z,11.10
2019-03-08T06:06:09.237Z,11.63
2019-03-08T06:08:37.109Z,9.80
2019-03-08T06:11:05.154Z,9.07
2019-03-08T06:13:32.938Z,9.30
2019-03-08T06:16:00.812Z,8.50
2019-03-08T06:18:28.866Z,9.87
2019-03-08T06:20:56.459Z,10.37
2019-03-08T06:23:24.317Z,9.33
2019-03-08T06:25:53.200Z,8.77
2019-03-08T06:28:20.968Z,9.40
2019-03-08T06:30:48.825Z,9.33
2019-03-08T06:33:16.635Z,9.30
2019-03-08T06:35:44.566Z,8.90
2019-03-08T06:38:12.435Z,8.63
2019-03-08T06:40:40.491Z,9.43
2019-03-08T06:43:08.770Z,10.30
2019-03-08T06:45:36.617Z,9.00
2019-03-08T06:48:04.684Z,9.17
2019-03-08T06:50:32.559Z,9.17
2019-03-08T06:53:00.441Z,7.67
2019-03-08T06:55:28.369Z,8.10
2019-03-08T06:57:59.954Z,8.53
2019-03-08T07:00:45.652Z,7.60
2019-03-08T07:03:13.490Z,9.00
2019-03-08T07:05:41.465Z,8.77
2019-03-08T07:08:09.136Z,10.30
2019-03-08T07:10:37.134Z,10.57
2019-03-08T07:13:04.752Z,9.90
2019-03-08T07:15:32.712Z,9.83
2019-03-08T07:18:00.707Z,9.00
2019-03-08T07:20:36.414Z,8.17
2019-03-08T07:23:16.915Z,8.23
2019-03-08T07:26:12.851Z,6.60
2019-03-08T07:29:05.739Z,7.07
2019-03-08T07:31:43.148Z,6.60
2019-03-08T07:34:33.376Z,8.20
2019-03-08T07:37:33.260Z,6.97
2019-03-08T07:40:23.254Z,7.27
2019-03-08T07:43:16.214Z,8.83
2019-03-08T07:46:13.483Z,8.90
2019-03-08T07:49:00.775Z,7.07
2019-03-08T07:51:56.756Z,6.90
2019-03-08T07:54:31.732Z,6.37
2019-03-08T07:57:16.665Z,6.87
2019-03-08T08:00:16.168Z,6.17
2019-03-08T08:03:06.128Z,5.57
2019-03-08T08:05:46.618Z,5.63
2019-03-08T08:08:32.490Z,5.50
2019-03-08T08:11:07.476Z,5.40
2019-03-08T08:13:57.927Z,5.27
2019-03-08T08:16:35.179Z,6.27
2019-03-08T08:19:27.997Z,6.53
2019-03-08T08:22:14.167Z,6.80
2019-03-08T08:25:04.222Z,7.40
2019-03-08T08:27:53.987Z,7.43
2019-03-08T08:30:44.213Z,7.13
2019-03-08T08:33:46.359Z,7.33
2019-03-08T08:36:36.499Z,6.83
2019-03-08T08:39:15.233Z,6.93
2019-03-08T08:41:52.679Z,6.13
2019-03-08T08:44:40.157Z,6.67
2019-03-08T08:47:26.840Z,7.20
2019-03-08T08:50:14.055Z,7.47
2019-03-08T08:52:59.180Z,7.70
2019-03-08T08:55:52.197Z,6.37
2019-03-08T08:58:38.231Z,6.70
2019-03-08T09:01:37.663Z,6.50
2019-03-08T09:04:21.072Z,6.97
2019-03-08T09:06:58.844Z,6.90
2019-03-08T09:09:52.279Z,7.07
2019-03-08T09:12:32.548Z,7.63
2019-03-08T09:15:12.532Z,7.80
2019-03-08T09:18:02.685Z,7.90
2019-03-08T09:20:55.945Z,7.17
2019-03-08T09:23:58.342Z,6.87
2019-03-08T09:27:00.646Z,6.93
2019-03-08T09:29:50.423Z,6.80
2019-03-08T09:32:43.680Z,7.20
2019-03-08T09:35:31.241Z,6.93
2019-03-08T09:38:30.162Z,6.37
2019-03-08T09:41:17.374Z,6.30
2019-03-08T09:44:16.626Z,5.60
2019-03-08T09:46:56.933Z,6.47
2019-03-08T09:49:35.598Z,5.67
2019-03-08T09:52:14.592Z,6.13
2019-03-08T09:55:04.842Z,5.17
2019-03-08T09:57:52.204Z,5.77
2019-03-08T10:00:33.738Z,5.57
2019-03-08T10:03:23.536Z,5.33
2019-03-08T10:06:13.516Z,5.30
2019-03-08T10:09:00.612Z,5.77
2019-03-08T10:11:46.654Z,5.47
2019-03-08T10:14:28.616Z,4.87
2019-03-08T10:17:16.015Z,4.93
2019-03-08T10:20:03.280Z,6.07
2019-03-08T10:22:59.387Z,6.03
2019-03-08T10:25:40.413Z,5.57
2019-03-08T10:28:17.445Z,5.63
2019-03-08T10:31:04.596Z,5.77
2019-03-08T10:33:57.794Z,5.67
2019-03-08T10:36:51.115Z,6.20
2019-03-08T10:39:26.518Z,6.77
2019-03-08T10:42:07.338Z,6.90
2019-03-08T10:44:40.792Z,6.60
2019-03-08T10:47:26.893Z,6.07
2019-03-08T10:50:02.844Z,7.07
2019-03-08T10:52:46.924Z,5.83
2019-03-08T10:55:33.160Z,7.23
2019-03-08T10:58:20.426Z,6.37
2019-03-08T11:00:54.491Z,6.30
2019-03-08T11:03:35.970Z,5.67
2019-03-08T11:06:15.422Z,7.37
2019-03-08T11:09:08.968Z,5.33
2019-03-08T11:11:54.104Z,5.47
2019-03-08T11:14:47.448Z,5.30
2019-03-08T11:17:21.953Z,4.57
2019-03-08T11:20:06.170Z,5.67
2019-03-08T11:22:56.416Z,6.00
2019-03-08T11:25:46.285Z,5.60
2019-03-08T11:28:33.448Z,5.72
2019-03-08T11:31:21.041Z,6.70
2019-03-08T11:34:06.632Z,6.28
2019-03-08T11:36:38.808Z,7.30
2019-03-08T11:39:35.734Z,6.33
2019-03-08T11:42:23.172Z,6.23
2019-03-08T11:45:07.611Z,6.17
2019-03-08T11:47:51.963Z,5.57
2019-03-08T11:50:40.088Z,6.33
2019-03-08T11:53:25.712Z,6.13
2019-03-08T11:56:09.709Z,5.80
2019-03-08T11:58:48.512Z,6.30
2019-03-08T12:01:41.261Z,6.53
2019-03-08T12:04:20.055Z,6.70
2019-03-08T12:07:19.622Z,5.63
2019-03-08T12:10:24.813Z,5.03
2019-03-08T12:13:08.959Z,4.83
2019-03-08T12:15:55.113Z,5.40
2019-03-08T12:18:42.378Z,5.43
2019-03-08T12:21:35.580Z,5.53
2019-03-08T12:24:29.295Z,5.17
2019-03-08T12:27:12.928Z,6.00
2019-03-08T12:30:18.281Z,5.08
2019-03-08T12:33:04.484Z,5.10
2019-03-08T12:35:41.095Z,5.17
2019-03-08T12:38:28.243Z,4.65
2019-03-08T12:41:18.334Z,5.07
2019-03-08T12:44:03.919Z,5.78
2019-03-08T12:46:54.198Z,5.08
2019-03-08T12:49:36.339Z,5.20
2019-03-08T12:52:22.755Z,4.63
2019-03-08T12:54:59.201Z,5.13
2019-03-08T12:57:34.823Z,4.73
2019-03-08T13:00:15.607Z,4.97
2019-03-08T13:03:08.572Z,4.97
2019-03-08T13:06:11.216Z,5.20
2019-03-08T13:08:57.204Z,5.37
2019-03-08T13:11:33.008Z,5.00
2019-03-08T13:13:54.854Z,4.17
2019-03-08T13:16:22.522Z,4.40
2019-03-08T13:18:50.546Z,5.10
2019-03-08T13:21:18.434Z,4.67
2019-03-08T13:23:46.130Z,5.63
2019-03-08T13:26:14.156Z,4.70
2019-03-08T13:28:42.364Z,5.47
2019-03-08T13:31:10.322Z,5.37
2019-03-08T13:33:38.236Z,5.67
2019-03-08T13:36:06.067Z,4.90
2019-03-08T13:38:33.921Z,5.23
2019-03-08T13:41:01.834Z,5.63
2019-03-08T13:43:29.861Z,4.97
2019-03-08T13:45:57.928Z,5.73
2019-03-08T13:48:25.678Z,4.87
2019-03-08T13:50:53.555Z,5.87
2019-03-08T13:53:21.344Z,5.17
2019-03-08T13:55:49.255Z,5.37
2019-03-08T13:58:17.157Z,4.80
2019-03-08T14:00:45.327Z,5.40
2019-03-08T14:03:13.171Z,4.83
2019-03-08T14:05:41.107Z,4.73
2019-03-08T14:08:09.137Z,4.63
2019-03-08T14:10:38.087Z,4.97
2019-03-08T14:13:06.001Z,5.10
2019-03-08T14:15:34.064Z,4.97
2019-03-08T14:18:01.990Z,5.30
2019-03-08T14:20:29.797Z,4.40
2019-03-08T14:22:57.775Z,4.47
2019-03-08T14:25:25.792Z,5.27
2019-03-08T14:27:53.710Z,5.73
2019-03-08T14:30:22.650Z,5.37
2019-03-08T14:32:50.615Z,6.37
2019-03-08T14:35:18.632Z,5.63
2019-03-08T14:37:46.589Z,6.17
2019-03-08T14:40:29.981Z,5.63
2019-03-08T14:43:03.830Z,5.97
2019-03-08T14:45:40.612Z,6.43
2019-03-08T14:48:09.597Z,6.40
2019-03-08T14:50:38.726Z,5.80
2019-03-08T14:53:06.626Z,6.10
2019-03-08T14:55:34.528Z,6.07
2019-03-08T14:58:02.493Z,6.60
2019-03-08T15:00:30.550Z,6.67
2019-03-08T15:02:58.437Z,5.83
2019-03-08T15:05:26.366Z,5.40
2019-03-08T15:07:54.030Z,5.53
2019-03-08T15:10:21.806Z,6.83
2019-03-08T15:12:55.735Z,5.33
2019-03-08T15:15:23.391Z,6.07
2019-03-08T15:17:53.600Z,6.60
2019-03-08T15:20:21.064Z,6.00
2019-03-08T15:22:50.255Z,7.07
2019-03-08T15:25:17.847Z,6.70
2019-03-08T15:27:45.435Z,6.87
2019-03-08T15:30:13.934Z,7.23
2019-03-08T15:32:41.746Z,7.43
2019-03-08T15:35:09.893Z,7.57
2019-03-08T15:37:44.099Z,6.90
2019-03-08T15:40:08.912Z,7.03
2019-03-08T15:42:37.966Z,7.83
2019-03-08T15:45:07.178Z,7.47
2019-03-08T15:47:36.265Z,7.80
2019-03-08T15:50:08.274Z,7.37
2019-03-08T15:52:35.760Z,8.23
2019-03-08T15:55:03.896Z,8.43
2019-03-08T15:57:31.695Z,9.37
2019-03-08T15:59:59.471Z,8.07
2019-03-08T16:02:27.346Z,7.67
2019-03-08T16:04:55.178Z,7.33
2019-03-08T16:07:23.214Z,8.03
2019-03-08T16:09:52.132Z,8.20
2019-03-08T16:12:19.733Z,7.93
2019-03-08T16:14:48.164Z,9.33
2019-03-08T16:17:16.020Z,11.03
2019-03-08T16:19:43.619Z,16.13
2019-03-08T16:22:11.495Z,11.20
2019-03-08T16:24:39.361Z,11.83
2019-03-08T16:27:07.278Z,11.27
2019-03-08T16:29:35.196Z,8.53
2019-03-08T16:32:22.399Z,9.13
2019-03-08T16:34:50.655Z,7.87
2019-03-08T16:37:37.778Z,11.60
2019-03-08T16:40:30.350Z,14.10
2019-03-08T16:43:19.066Z,16.00
2019-03-08T16:46:12.252Z,12.43
2019-03-08T16:48:52.390Z,14.00
2019-03-08T16:51:37.181Z,11.07
2019-03-08T16:54:21.032Z,9.50
2019-03-08T16:57:06.701Z,10.83
2019-03-08T16:59:56.736Z,10.60
2019-03-08T17:02:41.220Z,11.43
2019-03-08T17:05:15.429Z,11.27
2019-03-08T17:08:11.584Z,11.30
2019-03-08T17:10:49.985Z,12.20
2019-03-08T17:13:37.240Z,13.00
2019-03-08T17:16:13.679Z,12.63
2019-03-08T17:18:58.851Z,11.93
2019-03-08T17:21:48.608Z,11.27
2019-03-08T17:24:38.916Z,12.00
2019-03-08T17:27:24.640Z,12.43
2019-03-08T17:30:14.696Z,13.17
2019-03-08T17:33:07.680Z,13.43
2019-03-08T17:35:53.365Z,13.90
2019-03-08T17:38:35.303Z,15.93
2019-03-08T17:41:40.790Z,17.27
2019-03-08T17:44:26.739Z,21.27
2019-03-08T17:47:11.260Z,19.20
2019-03-08T17:49:53.708Z,12.37
2019-03-08T17:52:46.956Z,13.07
2019-03-08T17:55:40.187Z,12.87
2019-03-08T17:58:21.241Z,12.20
2019-03-08T18:01:20.663Z,12.00
2019-03-08T18:04:16.878Z,12.23
2019-03-08T18:07:19.036Z,13.17
2019-03-08T18:10:05.403Z,12.70
2019-03-08T18:12:51.166Z,12.73
2019-03-08T18:15:34.375Z,14.03
2019-03-08T18:18:09.984Z,13.43
2019-03-08T18:20:51.099Z,13.13
2019-03-08T18:23:41.016Z,12.70
2019-03-08T18:26:42.029Z,13.53
2019-03-08T18:29:40.880Z,15.15
2019-03-08T18:32:30.760Z,12.70
2019-03-08T18:35:32.623Z,15.03
2019-03-08T18:38:18.271Z,15.60
2019-03-08T18:40:55.862Z,16.93
2019-03-08T18:43:36.500Z,22.70
2019-03-08T18:46:32.627Z,21.77
2019-03-08T18:49:09.885Z,20.50
2019-03-08T18:52:03.092Z,19.07
2019-03-08T18:55:08.774Z,19.17
2019-03-08T18:57:46.695Z,19.27
2019-03-08T19:00:31.138Z,20.53
2019-03-08T19:03:30.007Z,20.47
2019-03-08T19:06:24.328Z,18.60
2019-03-08T19:09:11.497Z,19.80
2019-03-08T19:11:58.680Z,22.40
2019-03-08T19:14:51.704Z,23.37
2019-03-08T19:17:25.768Z,23.60
2019-03-08T19:20:18.950Z,30.13
2019-03-08T19:23:04.921Z,33.97
2019-03-08T19:25:44.717Z,29.50
2019-03-08T19:28:23.903Z,25.33
2019-03-08T19:31:09.965Z,25.27
2019-03-08T19:33:55.892Z,26.33
2019-03-08T19:36:45.847Z,27.67
2019-03-08T19:39:25.801Z,26.87
2019-03-08T19:42:12.935Z,26.53
2019-03-08T19:44:55.729Z,27.90
2019-03-08T19:47:45.404Z,28.50
2019-03-08T19:50:38.459Z,26.90
2019-03-08T19:53:15.904Z,25.93
2019-03-08T19:55:55.795Z,26.90
2019-03-08T19:58:34.068Z,27.90
2019-03-08T20:01:30.087Z,26.07
2019-03-08T20:04:13.728Z,27.60
2019-03-08T20:07:11.537Z,25.37
2019-03-08T20:09:58.788Z,25.47
2019-03-08T20:12:46.111Z,26.03
2019-03-08T20:15:39.359Z,26.00
2019-03-08T20:18:14.336Z,24.77
2019-03-08T20:21:06.376Z,24.63
2019-03-08T20:23:40.874Z,23.70
2019-03-08T20:26:28.206Z,22.77
2019-03-08T20:29:30.608Z,23.03
2019-03-08T20:32:17.713Z,20.13
2019-03-08T20:34:59.930Z,21.23
2019-03-08T20:37:37.206Z,21.03
2019-03-08T20:40:24.453Z,20.57
2019-03-08T20:43:11.701Z,20.10
2019-03-08T20:45:49.292Z,19.33
2019-03-08T20:48:17.193Z,21.03
2019-03-08T20:50:45.147Z,23.57
2019-03-08T20:53:12.809Z,23.40
2019-03-08T20:55:40.987Z,26.30
2019-03-08T20:58:08.875Z,26.80
2019-03-08T21:00:39.755Z,24.97
2019-03-08T21:03:07.851Z,24.80
2019-03-08T21:05:35.989Z,22.60
2019-03-08T21:08:03.612Z,23.30
2019-03-08T21:10:31.701Z,23.73
2019-03-08T21:12:59.659Z,23.60
2019-03-08T21:15:27.497Z,26.87
2019-03-08T21:17:55.453Z,27.27
2019-03-08T21:20:23.369Z,26.23
2019-03-08T21:22:51.188Z,22.90
2019-03-08T21:25:19.066Z,24.43
2019-03-08T21:27:47.020Z,21.50
2019-03-08T21:30:15.426Z,19.70
2019-03-08T21:32:43.211Z,18.80
2019-03-08T21:35:11.202Z,19.30
2019-03-08T21:37:39.008Z,17.63
2019-03-08T21:40:07.273Z,18.37
2019-03-08T21:42:36.878Z,19.13
2019-03-08T21:45:05.061Z,20.97
2019-03-08T21:47:32.843Z,20.30
2019-03-08T21:50:00.745Z,22.37
2019-03-08T21:52:28.773Z,21.20
2019-03-08T21:54:56.476Z,21.00
2019-03-08T21:57:24.327Z,18.47
2019-03-08T21:59:52.295Z,19.33
2019-03-08T22:02:20.280Z,20.80
2019-03-08T22:04:53.250Z,22.97
2019-03-08T22:07:21.528Z,21.00
2019-03-08T22:09:57.592Z,20.47
2019-03-08T22:12:25.680Z,19.33
2019-03-08T22:14:53.599Z,19.70
2019-03-08T22:17:21.564Z,19.03
2019-03-08T22:19:49.770Z,19.00
2019-03-08T22:22:17.835Z,21.13
2019-03-08T22:24:45.804Z,20.20
2019-03-08T22:27:13.901Z,19.80
2019-03-08T22:29:41.699Z,20.57
2019-03-08T22:32:10.017Z,19.77
2019-03-08T22:34:38.087Z,20.27
2019-03-08T22:37:06.263Z,21.20
2019-03-08T22:39:34.230Z,19.53
2019-03-08T22:42:02.531Z,19.73
2019-03-08T22:44:30.472Z,22.40
2019-03-08T22:46:58.513Z,21.13
2019-03-08T22:49:26.434Z,20.53
2019-03-08T22:51:54.481Z,19.63
2019-03-08T22:54:22.369Z,19.57
2019-03-08T22:56:50.420Z,20.67
2019-03-08T22:59:18.356Z,21.47
2019-03-08T23:01:48.891Z,20.47
2019-03-08T23:04:16.901Z,20.57
2019-03-08T23:06:44.860Z,19.77
2019-03-08T23:09:13.377Z,20.43
2019-03-08T23:11:41.334Z,20.53
2019-03-08T23:14:09.575Z,21.80
2019-03-08T23:16:37.397Z,22.13
2019-03-08T23:19:05.311Z,19.57
2019-03-08T23:21:33.071Z,24.67
2019-03-08T23:24:00.915Z,19.27
2019-03-08T23:26:30.767Z,17.70
2019-03-08T23:29:33.116Z,17.83
2019-03-08T23:32:05.168Z,17.63
2019-03-08T23:34:33.120Z,17.93
2019-03-08T23:37:00.995Z,18.10
2019-03-08T23:39:28.820Z,16.17
2019-03-08T23:41:56.715Z,16.73
2019-03-08T23:44:24.372Z,15.97
2019-03-08T23:46:52.312Z,15.47
2019-03-08T23:49:20.213Z,14.23
2019-03-08T23:51:47.998Z,14.67
2019-03-08T23:54:15.913Z,15.63
2019-03-08T23:56:43.828Z,15.90
2019-03-08T23:59:11.680Z,15.00
